Terminal Aerodrome Forecast
Issued by NWS

Home | Current Version | Previous Version | Text Only | Print | Product List | Glossary On
Versions: 1 2 3 4 5 6 7 8 9 10 11 12 13 14 15 16 17 18 19 20
000
FTUS41 KGYX 252333
TAFPSM
TAF
KPSM 252333Z 2600/2624 04010KT 3SM -RA BR OVC005
     FM260500 06008KT 1 1/2SM -RADZ BR OVC003
     FM261600 07007KT 3SM -RA BR OVC007=

USA.gov is the U.S. government's official web portal to all federal, state and local government web resources and services.